Pagina principale
METAR-TAF:

METAR-TAF

Aeroporti :

Aeroporto di Clermont-Ferrand Auvergne

Clermont-Ferrand, Francia

latitudine: 45-47N, longitudine: 003-10E, altezza: 332 m

Osservazione

Il bollettino è stato emesso 25 minuti fa, alle 06:00 UTC
Vento 1 kt da direzioni variabili
Temperature 24°C
Umidità 54%
Pressione 1021 hPa
Visibilità 10 km o più
nessuna nube inferiore a 1500 m e nessun cumulonembo

METAR: LFLC 270600Z AUTO VRB01KT CAVOK 24/14 Q1021 NOSIG

Ora: 08:25 (06:25 UTC)

Previsione

Il bollettino è stato emesso 4 ore e 25 minuti fa, alle 02:00 UTC
Previsione valida dal 27 alle 03 UTC al 28 alle 03 UTC
Vento 3 kt da direzioni variabili
Visibilità 10 km o più
nessuna nube inferiore a 1500 m e nessun cumulonembo
Temporaneamente
dal 27 alle 12 UTC al 27 alle 19 UTC
Vento 10 kt da nord/nord-est

TAF: LFLC 270200Z 2703/2803 VRB03KT CAVOK TEMPO 2712/2719 02010KT

Osservazioni e previsioni meteorologiche di più di 4000 aeroporti (messaggi METAR e TAF).

Le stazioni disponibili sono rappresentate dai dischi gialli e rossi sulla carta.

Puntare il mouse per vedere il nome della stazione.

Clicca sopra per visualizzare le osservazioni e previsioni meteorologiche.

Per cambiare la mappa : fare clic sui pulsanti verdi con una croce nera per ingrandire, il pulsante verde con un trattino per diminuire, o sulla freccia verde per le mappe adiacenti.


METAR-TAF: